• Join FlightAware (Why Join?)
  • Login
  • US Flag 
10:38PM EDT


 

Airport Tracker/Info


-or-


 

Live Flight TrackerFlight Track Log ✈ GJS3710 ✈ 08-May-2013 ✈ KMSY - KORD

Flight Track Log - Related Links

Times and Time Zones

All times are in EDT time to prevent confusion due to time zone crossing. See the GJS3710 flight status page for this flight to view local times or setup timezone preferences in your user account.

Time Position Orientation Groundspeed Altitude Reporting Facility
EDT Latitude Longitude Course Direction KTS MPH feet Rate Location/Type
03:43PM 29.9781 -90.2539 North 163 188 500  Level Houston Center
03:44PM 29.9594 -90.2594 195° South 155 178 1,500 1,500 Climbing Houston Center
03:45PM 29.9528 -90.2947 258° West 252 290 2,300 1,560 Climbing Houston Center
03:45PM 29.9714 -90.3069 330° Northwest 243 280 3,100 2,400 Climbing Houston Center
03:46PM 30.0172 -90.3169 349° North 251 289 4,800 2,640 Climbing Houston Center
03:47PM 30.3633 -90.4483 337° Northwest  Level FlightAware Approximate
03:47PM 30.0922 -90.3356 348° North 263 303 7,800  Level Houston Center
03:48PM 30.4619 -90.4500 North  Level FlightAware Approximate
03:48PM 30.1664 -90.3544 348° North 268 308 10,400  Level Houston Center
03:49PM 30.5666 -90.4463 North  Level FlightAware Approximate
03:49PM 30.2464 -90.3750 347° North 279 321 12,000  Level Houston Center
03:50PM 30.3375 -90.4022 346° North 327 376 14,100 1,980 Climbing Houston Center
03:51PM 30.4525 -90.4325 347° North 348 400 16,200 1,860 Climbing Houston Center
03:52PM 30.5500 -90.4564 348° North 356 410 18,000 1,680 Climbing Houston Center
03:53PM 30.6531 -90.4811 348° North 370 426 19,700 1,560 Climbing Houston Center
03:54PM 30.7553 -90.5056 348° North 375 432 21,300 1,500 Climbing Houston Center
03:55PM 30.8661 -90.4981 North 402 463 22,900 1,260 Climbing Houston Center
03:56PM 30.9758 -90.4853 North 396 456 24,000 1,080 Climbing Houston Center
03:57PM 31.1150 -90.4692 North 412 474 25,200 1,020 Climbing Houston Center
03:58PM 31.2336 -90.4533 North 424 488 26,200 960 Climbing Houston Center
03:59PM 31.3539 -90.4389 North 432 497 27,200 960 Climbing Houston Center
04:00PM 31.4739 -90.4250 North 433 498 28,300 960 Climbing Houston Center
04:01PM 31.5953 -90.4111 North 436 502 29,300 960 Climbing Houston Center
04:02PM 31.7156 -90.3967 North 435 501 30,300 1,020 Climbing Houston Center
04:03PM 31.8589 -90.3789 North 431 496 31,500 1,020 Climbing Houston Center
04:04PM 31.9456 -90.3694 North 424 488 32,200 900 Climbing Memphis Center
04:05PM 32.0622 -90.3550 North 424 488 33,200 900 Climbing Memphis Center
04:06PM 32.1814 -90.3400 North 424 488 34,000 660 Climbing Memphis Center
04:07PM 32.2983 -90.3278 North 424 488 34,600 600 Climbing Memphis Center
04:08PM 32.4172 -90.3106 North 424 488 35,300 780 Climbing Memphis Center
04:09PM 32.5342 -90.3031 North 424 488 36,200 900 Climbing Memphis Center
04:10PM 32.6511 -90.3056 359° North 419 482 37,200 900 Climbing Memphis Center
04:11PM 32.7639 -90.3103 358° North 419 482 38,000 360 Climbing Memphis Center
04:12PM 32.8764 -90.3128 359° North 413 475 38,000  Level Memphis Center
04:13PM 32.9933 -90.3153 359° North 413 475 38,000  Level Memphis Center
04:14PM 33.1103 -90.3175 359° North 413 475 38,000  Level Memphis Center
04:15PM 33.2272 -90.3200 359° North 413 475 38,000  Level Memphis Center
04:16PM 33.3442 -90.3250 358° North 419 482 38,000  Level Memphis Center
04:18PM 33.5819 -90.3322 359° North 419 482 38,000  Level Memphis Center
04:19PM 33.6989 -90.3172 North 419 482 38,000  Level Memphis Center
04:20PM 33.8117 -90.2672 20° North 419 482 38,000  Level Memphis Center
04:21PM 33.9369 -90.2319 13° North 419 482 38,000  Level Memphis Center
04:22PM 34.0536 -90.2369 358° North 413 475 38,000  Level Memphis Center
04:23PM 34.1728 -90.2442 357° North 407 468 38,000  Level Memphis Center
04:24PM 34.2875 -90.2517 357° North 414 476 38,000  Level Memphis Center
04:25PM 34.4022 -90.2564 358° North 421 484 38,000  Level Memphis Center
04:26PM 34.5169 -90.2614 358° North 421 484 38,000  Level Memphis Center
04:27PM 34.6317 -90.2689 357° North 416 479 38,000  Level Memphis Center
04:28PM 34.7339 -90.2736 358° North 411 473 38,000  Level Memphis Center
04:29PM 34.8489 -90.2786 358° North 411 473 38,000  Level Memphis Center
04:30PM 34.9636 -90.2861 357° North 411 473 38,000  Level Memphis Center
04:31PM 35.0761 -90.2886 359° North 400 460 38,000  Level Memphis Center
04:32PM 35.2033 -90.2961 357° North 400 460 38,000  Level Memphis Center
04:33PM 35.3161 -90.3114 354° North 405 466 38,000  Level Memphis Center
04:34PM 35.4286 -90.3342 351° North 405 466 38,000  Level Memphis Center
04:35PM 35.5372 -90.3544 351° North 405 466 38,000  Level Memphis Center
04:36PM 35.6497 -90.3750 352° North 412 474 38,000  Level Memphis Center
04:37PM 35.7583 -90.3953 351° North 404 465 38,000  Level Memphis Center
04:38PM 35.8731 -90.4186 351° North 404 465 38,000  Level Memphis Center
04:39PM 35.9875 -90.4417 351° North 410 472 38,000  Level Memphis Center
04:40PM 36.1044 -90.4650 351° North 415 478 38,000  Level Memphis Center
04:41PM 36.2003 -90.4806 353° North 422 486 38,000  Level Memphis Center
04:42PM 36.3253 -90.5064 351° North 422 486 38,000  Level Memphis Center
04:43PM 36.4442 -90.5272 352° North 422 486 38,000  Level Memphis Center
04:44PM 36.5608 -90.5533 350° North 427 491 38,000  Level Memphis Center
04:46PM 36.7464 -90.5442 North 437 503 38,000  Level Kansas City Center
04:47PM 36.8650 -90.5231 North 429 494 38,000  Level Kansas City Center
04:48PM 37.0094 -90.5003 North 432 497 38,000  Level Kansas City Center
04:50PM 37.2492 -90.4867 North 427 491 38,000  Level Kansas City Center
04:51PM 37.3608 -90.4897 359° North 427 491 38,000  Level Kansas City Center
04:52PM 37.4786 -90.4933 359° North 425 489 38,000  Level Kansas City Center
04:53PM 37.5967 -90.4992 358° North 425 489 38,000  Level Kansas City Center
04:54PM 37.7375 -90.5033 359° North 423 487 38,000  Level Kansas City Center
04:55PM 37.8547 -90.5081 358° North 422 486 38,000  Level Kansas City Center
04:56PM 37.9728 -90.5119 359° North 423 487 38,000  Level Kansas City Center
04:57PM 38.0892 -90.5167 358° North 422 486 38,000  Level Kansas City Center
04:58PM 38.2053 -90.5208 358° North 419 482 38,000  Level Kansas City Center
04:59PM 38.3225 -90.5253 358° North 419 482 38,000  Level Kansas City Center
05:00PM 38.4606 -90.5311 358° North 417 480 38,000  Level Kansas City Center
05:01PM 38.5781 -90.5361 358° North 418 481 38,000  Level Kansas City Center
05:02PM 38.6950 -90.5419 358° North 420 483 38,000  Level Kansas City Center
05:03PM 38.8092 -90.5686 350° North 418 481 38,000  Level Kansas City Center
05:04PM 38.9211 -90.6000 348° North 413 475 38,000  Level Kansas City Center
05:05PM 39.0422 -90.6292 349° North 414 476 38,000  Level Kansas City Center
05:06PM 39.1544 -90.6608 348° North 413 475 38,000 -300 Level Kansas City Center
05:07PM 39.2678 -90.6919 348° North 415 478 37,500 -540 Descending Kansas City Center
05:08PM 39.4097 -90.7261 349° North 428 493 37,000 -300 Descending Kansas City Center
05:09PM 39.5297 -90.6900 13° North 443 510 37,000  Level Kansas City Center
05:10PM 39.6439 -90.6150 27° Northeast 454 522 37,000  Level Kansas City Center
05:11PM 39.7544 -90.5406 27° Northeast 456 525 37,000  Level Kansas City Center
05:13PM 39.8669 -90.4664 27° Northeast 454 522 37,000 -600 Level Kansas City Center
05:14PM 40.0019 -90.3775 27° Northeast 454 522 35,800 -1,620 Descending Kansas City Center
05:15PM 40.1094 -90.3031 28° Northeast 444 511 33,800 -1,380 Descending Chicago Center
05:16PM 40.2214 -90.2292 27° Northeast 447 514 33,000 -420 Descending Chicago Center
05:17PM 40.3297 -90.1558 27° Northeast 439 505 33,000 -720 Level Chicago Center
05:18PM 40.4356 -90.0853 27° Northeast 427 491 31,500 -1,500 Descending Chicago Center
05:19PM 40.5561 -90.0036 27° Northeast 428 493 29,900 -1,560 Descending Chicago Center
05:20PM 40.6692 -89.9942 North 404 465 28,300 -1,380 Descending Chicago Center
05:21PM 40.7742 -89.9586 14° North 406 467 27,100 -1,080 Descending Chicago Center
05:22PM 40.8667 -89.8717 35° Northeast 410 472 26,100 -1,020 Descending Chicago Center
05:23PM 40.9542 -89.7872 36° Northeast 395 455 25,100 -1,020 Descending Chicago Center
05:24PM 41.0578 -89.6883 36° Northeast 392 451 24,000 -540 Descending Chicago Center
05:25PM 41.1469 -89.6006 37° Northeast 397 457 24,000 -780 Level Chicago Center
05:26PM 41.2025 -89.4839 58° Northeast 378 435 22,500 -1,740 Descending Chicago Center
05:27PM 41.2525 -89.3608 62° Northeast 377 434 20,500 -1,920 Descending Chicago Center
05:28PM 41.3025 -89.2400 61° Northeast 375 432 18,500 -2,100 Descending Chicago Center
05:29PM 41.3556 -89.1011 63° Northeast 360 414 16,200 -2,040 Descending Chicago Center
05:30PM 41.4014 -88.9881 62° Northeast 352 405 14,400 -1,620 Descending Chicago Center
05:31PM 41.4439 -88.8783 63° Northeast 337 388 12,900 -1,500 Descending Chicago Center
05:32PM 41.4850 -88.7769 62° Northeast 315 362 11,300 -1,020 Descending Chicago Center
05:33PM 41.5242 -88.6786 62° Northeast 300 345 10,900 -120 Descending Chicago Center
05:34PM 41.5619 -88.5811 63° Northeast 296 341 11,100 -300 Climbing Chicago Center
05:35PM 41.6253 -88.4789 50° Northeast 298 343 10,300 -1,320 Descending Chicago Center
05:36PM 41.6772 -88.3961 50° Northeast 292 336 8,400 -1,620 Descending Chicago Center
05:37PM 41.7286 -88.3153 50° Northeast 286 329 7,000 -720 Descending Chicago Center
05:38PM 41.7956 -88.2872 17° North 270 311 6,900 -900 Descending Chicago Center
05:40PM 41.9167 -88.3000 356° North 284 327 4,700 -1,320 Descending Chicago TRACON
05:40PM 41.9436 -88.2975 North 267 307 4,200 -540 Descending Chicago Center
05:41PM 41.9694 -88.1981 71° East 248 285 3,900 -360 Descending Chicago Center
05:43PM 41.9681 -88.1242 91° East 220 253 3,500 -660 Descending Chicago Center
05:43PM 41.9667 -88.0833 93° East 186 214 3,000 -1,140 Descending Chicago TRACON